sensor_id;sensor_type;location;lat;lon;timestamp;P1;durP1;ratioP1;P2;durP2;ratioP2
78858;SDS011;68210;52.032;4.634;2023-08-17T00:00:50;3.53;;;1.60;;
78858;SDS011;68210;52.032;4.634;2023-08-17T00:02:51;4.05;;;1.50;;
78858;SDS011;68210;52.032;4.634;2023-08-17T00:04:52;2.58;;;1.30;;
78858;SDS011;68210;52.032;4.634;2023-08-17T00:06:52;2.05;;;1.20;;
78858;SDS011;68210;52.032;4.634;2023-08-17T00:08:52;3.92;;;1.60;;
78858;SDS011;68210;52.032;4.634;2023-08-17T00:10:53;4.72;;;1.50;;
78858;SDS011;68210;52.032;4.634;2023-08-17T00:12:53;4.75;;;1.55;;
78858;SDS011;68210;52.032;4.634;2023-08-17T00:14:53;4.43;;;1.40;;
78858;SDS011;68210;52.032;4.634;2023-08-17T00:16:54;3.05;;;1.33;;
78858;SDS011;68210;52.032;4.634;2023-08-17T00:18:54;5.80;;;1.42;;
78858;SDS011;68210;52.032;4.634;2023-08-17T00:20:55;3.05;;;1.40;;
78858;SDS011;68210;52.032;4.634;2023-08-17T00:22:56;2.85;;;1.40;;
78858;SDS011;68210;52.032;4.634;2023-08-17T00:24:56;2.70;;;1.20;;
78858;SDS011;68210;52.032;4.634;2023-08-17T00:26:56;3.35;;;1.58;;
78858;SDS011;68210;52.032;4.634;2023-08-17T00:28:57;4.22;;;1.48;;
78858;SDS011;68210;52.032;4.634;2023-08-17T00:30:57;3.05;;;1.30;;
78858;SDS011;68210;52.032;4.634;2023-08-17T00:32:59;4.47;;;1.40;;
78858;SDS011;68210;52.032;4.634;2023-08-17T00:35:00;1.95;;;1.30;;
78858;SDS011;68210;52.032;4.634;2023-08-17T00:37:00;2.40;;;1.45;;
78858;SDS011;68210;52.032;4.634;2023-08-17T00:39:01;5.55;;;1.63;;
78858;SDS011;68210;52.032;4.634;2023-08-17T00:41:01;4.30;;;1.60;;
78858;SDS011;68210;52.032;4.634;2023-08-17T00:43:01;3.55;;;1.38;;
78858;SDS011;68210;52.032;4.634;2023-08-17T00:45:02;1.77;;;1.10;;
78858;SDS011;68210;52.032;4.634;2023-08-17T00:47:02;4.53;;;1.17;;
78858;SDS011;68210;52.032;4.634;2023-08-17T00:49:04;2.20;;;1.05;;
78858;SDS011;68210;52.032;4.634;2023-08-17T00:51:06;2.78;;;1.30;;
78858;SDS011;68210;52.032;4.634;2023-08-17T00:53:06;3.85;;;1.40;;
78858;SDS011;68210;52.032;4.634;2023-08-17T00:55:13;2.72;;;1.30;;
78858;SDS011;68210;52.032;4.634;2023-08-17T00:57:13;4.60;;;1.20;;
78858;SDS011;68210;52.032;4.634;2023-08-17T00:59:14;2.70;;;1.23;;
78858;SDS011;68210;52.032;4.634;2023-08-17T01:01:15;5.68;;;1.70;;
78858;SDS011;68210;52.032;4.634;2023-08-17T01:03:16;6.88;;;1.38;;
78858;SDS011;68210;52.032;4.634;2023-08-17T01:05:18;2.33;;;1.00;;
78858;SDS011;68210;52.032;4.634;2023-08-17T01:07:18;3.60;;;1.20;;
78858;SDS011;68210;52.032;4.634;2023-08-17T01:09:18;2.97;;;1.27;;
78858;SDS011;68210;52.032;4.634;2023-08-17T01:13:44;2.83;;;0.98;;
78858;SDS011;68210;52.032;4.634;2023-08-17T01:15:50;4.70;;;1.13;;
78858;SDS011;68210;52.032;4.634;2023-08-17T01:17:56;1.70;;;1.15;;
78858;SDS011;68210;52.032;4.634;2023-08-17T01:20:03;5.20;;;1.40;;
78858;SDS011;68210;52.032;4.634;2023-08-17T01:22:05;2.92;;;1.10;;
78858;SDS011;68210;52.032;4.634;2023-08-17T01:24:06;2.22;;;1.00;;
78858;SDS011;68210;52.032;4.634;2023-08-17T01:26:06;2.80;;;1.30;;
78858;SDS011;68210;52.032;4.634;2023-08-17T01:28:07;4.10;;;1.42;;
78858;SDS011;68210;52.032;4.634;2023-08-17T01:30:07;2.70;;;0.95;;
78858;SDS011;68210;52.032;4.634;2023-08-17T01:32:16;2.90;;;1.25;;
78858;SDS011;68210;52.032;4.634;2023-08-17T01:34:31;3.17;;;1.30;;
78858;SDS011;68210;52.032;4.634;2023-08-17T01:38:43;1.95;;;1.10;;
78858;SDS011;68210;52.032;4.634;2023-08-17T01:40:45;5.63;;;1.25;;
78858;SDS011;68210;52.032;4.634;2023-08-17T01:42:47;2.80;;;1.20;;
78858;SDS011;68210;52.032;4.634;2023-08-17T01:44:49;4.38;;;1.40;;
78858;SDS011;68210;52.032;4.634;2023-08-17T01:46:50;2.65;;;1.10;;
78858;SDS011;68210;52.032;4.634;2023-08-17T01:48:50;4.53;;;1.20;;
78858;SDS011;68210;52.032;4.634;2023-08-17T01:50:51;3.58;;;0.90;;
78858;SDS011;68210;52.032;4.634;2023-08-17T01:52:51;5.53;;;1.33;;
78858;SDS011;68210;52.032;4.634;2023-08-17T01:54:51;3.15;;;1.25;;
78858;SDS011;68210;52.032;4.634;2023-08-17T01:56:52;2.85;;;1.38;;
78858;SDS011;68210;52.032;4.634;2023-08-17T01:58:52;2.03;;;0.90;;
78858;SDS011;68210;52.032;4.634;2023-08-17T02:00:52;6.65;;;1.38;;
78858;SDS011;68210;52.032;4.634;2023-08-17T02:02:53;5.03;;;1.33;;
78858;SDS011;68210;52.032;4.634;2023-08-17T02:04:53;6.72;;;1.83;;
78858;SDS011;68210;52.032;4.634;2023-08-17T02:06:53;2.92;;;1.42;;
78858;SDS011;68210;52.032;4.634;2023-08-17T02:08:54;2.90;;;1.27;;
78858;SDS011;68210;52.032;4.634;2023-08-17T02:10:54;3.05;;;1.30;;
78858;SDS011;68210;52.032;4.634;2023-08-17T02:12:54;4.57;;;1.30;;
78858;SDS011;68210;52.032;4.634;2023-08-17T02:14:55;4.53;;;1.75;;
78858;SDS011;68210;52.032;4.634;2023-08-17T02:16:55;3.45;;;1.33;;
78858;SDS011;68210;52.032;4.634;2023-08-17T02:18:55;1.90;;;1.25;;
78858;SDS011;68210;52.032;4.634;2023-08-17T02:20:56;5.82;;;1.58;;
78858;SDS011;68210;52.032;4.634;2023-08-17T02:22:56;7.35;;;1.60;;
78858;SDS011;68210;52.032;4.634;2023-08-17T02:24:56;3.78;;;1.48;;
78858;SDS011;68210;52.032;4.634;2023-08-17T02:26:57;6.47;;;1.50;;
78858;SDS011;68210;52.032;4.634;2023-08-17T02:28:57;4.13;;;1.33;;
78858;SDS011;68210;52.032;4.634;2023-08-17T02:30:58;3.63;;;1.45;;
78858;SDS011;68210;52.032;4.634;2023-08-17T02:32:59;5.03;;;1.77;;
78858;SDS011;68210;52.032;4.634;2023-08-17T02:34:59;3.00;;;1.15;;
78858;SDS011;68210;52.032;4.634;2023-08-17T02:36:59;4.80;;;1.08;;
78858;SDS011;68210;52.032;4.634;2023-08-17T02:39:00;4.95;;;1.50;;
78858;SDS011;68210;52.032;4.634;2023-08-17T02:41:00;6.25;;;1.70;;
78858;SDS011;68210;52.032;4.634;2023-08-17T02:43:01;4.97;;;1.40;;
78858;SDS011;68210;52.032;4.634;2023-08-17T02:45:01;6.88;;;1.95;;
78858;SDS011;68210;52.032;4.634;2023-08-17T02:47:01;6.57;;;1.80;;
78858;SDS011;68210;52.032;4.634;2023-08-17T02:49:02;4.03;;;1.77;;
78858;SDS011;68210;52.032;4.634;2023-08-17T02:51:02;3.75;;;1.33;;
78858;SDS011;68210;52.032;4.634;2023-08-17T02:53:03;4.15;;;1.45;;
78858;SDS011;68210;52.032;4.634;2023-08-17T02:55:03;2.95;;;1.50;;
78858;SDS011;68210;52.032;4.634;2023-08-17T02:57:04;3.67;;;1.70;;
78858;SDS011;68210;52.032;4.634;2023-08-17T02:59:04;5.13;;;1.75;;
78858;SDS011;68210;52.032;4.634;2023-08-17T03:01:05;5.20;;;1.67;;
78858;SDS011;68210;52.032;4.634;2023-08-17T03:03:05;3.33;;;1.40;;
78858;SDS011;68210;52.032;4.634;2023-08-17T03:05:05;4.78;;;1.83;;
78858;SDS011;68210;52.032;4.634;2023-08-17T03:07:07;3.67;;;1.60;;
78858;SDS011;68210;52.032;4.634;2023-08-17T03:09:07;4.43;;;1.55;;
78858;SDS011;68210;52.032;4.634;2023-08-17T03:11:07;4.80;;;1.50;;
78858;SDS011;68210;52.032;4.634;2023-08-17T03:13:09;8.23;;;1.58;;
78858;SDS011;68210;52.032;4.634;2023-08-17T03:15:10;4.00;;;1.67;;
78858;SDS011;68210;52.032;4.634;2023-08-17T03:17:10;4.47;;;1.52;;
78858;SDS011;68210;52.032;4.634;2023-08-17T03:19:11;4.28;;;1.92;;
78858;SDS011;68210;52.032;4.634;2023-08-17T03:21:12;4.03;;;1.40;;
78858;SDS011;68210;52.032;4.634;2023-08-17T03:23:13;6.90;;;1.80;;
78858;SDS011;68210;52.032;4.634;2023-08-17T03:25:13;5.28;;;1.45;;
78858;SDS011;68210;52.032;4.634;2023-08-17T03:27:13;6.15;;;1.45;;
78858;SDS011;68210;52.032;4.634;2023-08-17T03:29:14;4.90;;;1.65;;
78858;SDS011;68210;52.032;4.634;2023-08-17T03:31:14;4.75;;;1.50;;
78858;SDS011;68210;52.032;4.634;2023-08-17T03:33:14;3.38;;;1.48;;
78858;SDS011;68210;52.032;4.634;2023-08-17T03:35:15;4.82;;;2.08;;
78858;SDS011;68210;52.032;4.634;2023-08-17T03:37:15;3.95;;;1.60;;
78858;SDS011;68210;52.032;4.634;2023-08-17T03:39:15;5.50;;;1.95;;
78858;SDS011;68210;52.032;4.634;2023-08-17T03:41:16;3.75;;;1.77;;
78858;SDS011;68210;52.032;4.634;2023-08-17T03:43:16;5.15;;;2.00;;
78858;SDS011;68210;52.032;4.634;2023-08-17T03:45:17;4.80;;;1.50;;
78858;SDS011;68210;52.032;4.634;2023-08-17T03:47:18;6.15;;;1.58;;
78858;SDS011;68210;52.032;4.634;2023-08-17T03:49:18;3.92;;;1.70;;
78858;SDS011;68210;52.032;4.634;2023-08-17T03:51:19;5.10;;;1.50;;
78858;SDS011;68210;52.032;4.634;2023-08-17T03:53:19;3.33;;;1.70;;
78858;SDS011;68210;52.032;4.634;2023-08-17T03:55:19;5.65;;;1.73;;
78858;SDS011;68210;52.032;4.634;2023-08-17T03:57:20;3.55;;;1.42;;
78858;SDS011;68210;52.032;4.634;2023-08-17T03:59:21;4.30;;;1.63;;
78858;SDS011;68210;52.032;4.634;2023-08-17T04:01:21;3.55;;;1.67;;
78858;SDS011;68210;52.032;4.634;2023-08-17T04:03:22;4.97;;;1.60;;
78858;SDS011;68210;52.032;4.634;2023-08-17T04:05:22;5.25;;;1.80;;
78858;SDS011;68210;52.032;4.634;2023-08-17T04:07:22;3.75;;;1.80;;
78858;SDS011;68210;52.032;4.634;2023-08-17T04:09:23;5.78;;;1.55;;
78858;SDS011;68210;52.032;4.634;2023-08-17T04:11:23;4.82;;;1.70;;
78858;SDS011;68210;52.032;4.634;2023-08-17T04:13:24;5.70;;;1.58;;
78858;SDS011;68210;52.032;4.634;2023-08-17T04:15:24;4.43;;;1.70;;
78858;SDS011;68210;52.032;4.634;2023-08-17T04:17:25;4.38;;;1.70;;
78858;SDS011;68210;52.032;4.634;2023-08-17T04:19:25;3.00;;;1.60;;
78858;SDS011;68210;52.032;4.634;2023-08-17T04:21:25;5.53;;;1.60;;
78858;SDS011;68210;52.032;4.634;2023-08-17T04:23:26;4.55;;;1.70;;
78858;SDS011;68210;52.032;4.634;2023-08-17T04:25:26;6.05;;;1.70;;
78858;SDS011;68210;52.032;4.634;2023-08-17T04:27:27;5.03;;;1.60;;
78858;SDS011;68210;52.032;4.634;2023-08-17T04:29:27;5.10;;;1.70;;
78858;SDS011;68210;52.032;4.634;2023-08-17T04:31:27;5.35;;;1.95;;
78858;SDS011;68210;52.032;4.634;2023-08-17T04:33:28;4.10;;;1.60;;
78858;SDS011;68210;52.032;4.634;2023-08-17T04:35:28;4.53;;;1.52;;
78858;SDS011;68210;52.032;4.634;2023-08-17T04:37:29;6.75;;;1.70;;
78858;SDS011;68210;52.032;4.634;2023-08-17T04:39:29;3.58;;;1.20;;
78858;SDS011;68210;52.032;4.634;2023-08-17T04:41:30;5.22;;;1.55;;
78858;SDS011;68210;52.032;4.634;2023-08-17T04:43:30;2.22;;;1.40;;
78858;SDS011;68210;52.032;4.634;2023-08-17T04:45:31;3.40;;;1.38;;
78858;SDS011;68210;52.032;4.634;2023-08-17T04:47:31;5.10;;;1.80;;
78858;SDS011;68210;52.032;4.634;2023-08-17T04:49:31;6.35;;;1.50;;
78858;SDS011;68210;52.032;4.634;2023-08-17T04:51:32;3.50;;;1.50;;
78858;SDS011;68210;52.032;4.634;2023-08-17T04:53:32;5.35;;;1.60;;
78858;SDS011;68210;52.032;4.634;2023-08-17T04:55:32;4.15;;;1.35;;
78858;SDS011;68210;52.032;4.634;2023-08-17T04:57:33;7.03;;;1.90;;
78858;SDS011;68210;52.032;4.634;2023-08-17T04:59:33;7.03;;;1.73;;
78858;SDS011;68210;52.032;4.634;2023-08-17T05:01:34;2.20;;;1.30;;
78858;SDS011;68210;52.032;4.634;2023-08-17T05:03:35;3.70;;;1.50;;
78858;SDS011;68210;52.032;4.634;2023-08-17T05:05:35;4.38;;;1.50;;
78858;SDS011;68210;52.032;4.634;2023-08-17T05:07:37;4.18;;;1.40;;
78858;SDS011;68210;52.032;4.634;2023-08-17T05:09:37;5.18;;;1.70;;
78858;SDS011;68210;52.032;4.634;2023-08-17T05:11:38;3.33;;;1.73;;
78858;SDS011;68210;52.032;4.634;2023-08-17T05:13:38;4.40;;;1.40;;
78858;SDS011;68210;52.032;4.634;2023-08-17T05:15:38;3.95;;;1.40;;
78858;SDS011;68210;52.032;4.634;2023-08-17T05:17:39;4.65;;;1.52;;
78858;SDS011;68210;52.032;4.634;2023-08-17T05:19:40;4.57;;;1.60;;
78858;SDS011;68210;52.032;4.634;2023-08-17T05:21:41;4.90;;;1.52;;
78858;SDS011;68210;52.032;4.634;2023-08-17T05:23:42;3.85;;;1.10;;
78858;SDS011;68210;52.032;4.634;2023-08-17T05:25:45;4.53;;;1.50;;
78858;SDS011;68210;52.032;4.634;2023-08-17T05:27:47;3.47;;;1.40;;
78858;SDS011;68210;52.032;4.634;2023-08-17T05:29:49;4.20;;;1.35;;
78858;SDS011;68210;52.032;4.634;2023-08-17T05:31:49;3.67;;;1.50;;
78858;SDS011;68210;52.032;4.634;2023-08-17T05:33:49;3.20;;;1.60;;
78858;SDS011;68210;52.032;4.634;2023-08-17T05:35:53;3.10;;;1.40;;
78858;SDS011;68210;52.032;4.634;2023-08-17T05:37:54;5.50;;;1.40;;
78858;SDS011;68210;52.032;4.634;2023-08-17T05:39:54;5.47;;;1.25;;
78858;SDS011;68210;52.032;4.634;2023-08-17T05:41:55;3.20;;;1.40;;
78858;SDS011;68210;52.032;4.634;2023-08-17T05:43:55;7.40;;;1.42;;
78858;SDS011;68210;52.032;4.634;2023-08-17T05:45:56;4.22;;;1.40;;
78858;SDS011;68210;52.032;4.634;2023-08-17T05:47:59;2.70;;;1.23;;
78858;SDS011;68210;52.032;4.634;2023-08-17T05:49:59;2.92;;;1.00;;
78858;SDS011;68210;52.032;4.634;2023-08-17T05:51:59;3.03;;;1.10;;
78858;SDS011;68210;52.032;4.634;2023-08-17T05:54:00;3.00;;;1.40;;
78858;SDS011;68210;52.032;4.634;2023-08-17T05:56:00;3.85;;;1.13;;
78858;SDS011;68210;52.032;4.634;2023-08-17T05:58:01;3.83;;;1.25;;
78858;SDS011;68210;52.032;4.634;2023-08-17T06:00:02;3.72;;;1.40;;
78858;SDS011;68210;52.032;4.634;2023-08-17T06:02:03;2.75;;;1.23;;
78858;SDS011;68210;52.032;4.634;2023-08-17T06:04:03;5.13;;;1.63;;
78858;SDS011;68210;52.032;4.634;2023-08-17T06:06:04;5.28;;;1.63;;
78858;SDS011;68210;52.032;4.634;2023-08-17T06:08:05;4.50;;;1.70;;
78858;SDS011;68210;52.032;4.634;2023-08-17T06:10:06;5.57;;;1.73;;
78858;SDS011;68210;52.032;4.634;2023-08-17T06:12:06;6.07;;;1.67;;
78858;SDS011;68210;52.032;4.634;2023-08-17T06:14:07;5.57;;;1.40;;
78858;SDS011;68210;52.032;4.634;2023-08-17T06:16:07;4.47;;;1.25;;
78858;SDS011;68210;52.032;4.634;2023-08-17T06:18:07;5.22;;;1.35;;
78858;SDS011;68210;52.032;4.634;2023-08-17T06:20:08;5.95;;;1.60;;
78858;SDS011;68210;52.032;4.634;2023-08-17T06:22:10;7.70;;;1.73;;
78858;SDS011;68210;52.032;4.634;2023-08-17T06:24:10;5.72;;;1.60;;
78858;SDS011;68210;52.032;4.634;2023-08-17T06:26:10;4.07;;;1.60;;
78858;SDS011;68210;52.032;4.634;2023-08-17T06:28:11;3.30;;;1.63;;
78858;SDS011;68210;52.032;4.634;2023-08-17T06:30:11;5.95;;;1.67;;
78858;SDS011;68210;52.032;4.634;2023-08-17T06:32:12;5.13;;;1.70;;
78858;SDS011;68210;52.032;4.634;2023-08-17T06:34:12;4.68;;;1.55;;
78858;SDS011;68210;52.032;4.634;2023-08-17T06:36:13;4.80;;;1.60;;
78858;SDS011;68210;52.032;4.634;2023-08-17T06:38:16;5.55;;;1.70;;
78858;SDS011;68210;52.032;4.634;2023-08-17T06:40:16;4.72;;;1.70;;
78858;SDS011;68210;52.032;4.634;2023-08-17T06:42:17;5.60;;;1.50;;
78858;SDS011;68210;52.032;4.634;2023-08-17T06:44:17;5.65;;;1.52;;
78858;SDS011;68210;52.032;4.634;2023-08-17T06:46:18;3.83;;;1.77;;
78858;SDS011;68210;52.032;4.634;2023-08-17T06:48:18;4.10;;;1.48;;
78858;SDS011;68210;52.032;4.634;2023-08-17T06:50:18;2.65;;;1.30;;
78858;SDS011;68210;52.032;4.634;2023-08-17T06:52:19;5.97;;;1.75;;
78858;SDS011;68210;52.032;4.634;2023-08-17T06:54:19;4.25;;;1.50;;
78858;SDS011;68210;52.032;4.634;2023-08-17T06:56:20;3.38;;;1.40;;
78858;SDS011;68210;52.032;4.634;2023-08-17T06:58:20;5.18;;;1.70;;
78858;SDS011;68210;52.032;4.634;2023-08-17T07:00:20;4.30;;;1.25;;
78858;SDS011;68210;52.032;4.634;2023-08-17T07:02:21;6.10;;;1.75;;
78858;SDS011;68210;52.032;4.634;2023-08-17T07:04:21;3.80;;;1.50;;
78858;SDS011;68210;52.032;4.634;2023-08-17T07:06:22;7.60;;;1.85;;
78858;SDS011;68210;52.032;4.634;2023-08-17T07:08:23;6.60;;;1.90;;
78858;SDS011;68210;52.032;4.634;2023-08-17T07:10:24;4.05;;;1.70;;
78858;SDS011;68210;52.032;4.634;2023-08-17T07:12:24;6.57;;;1.75;;
78858;SDS011;68210;52.032;4.634;2023-08-17T07:14:25;5.07;;;1.55;;
78858;SDS011;68210;52.032;4.634;2023-08-17T07:16:25;6.43;;;1.67;;
78858;SDS011;68210;52.032;4.634;2023-08-17T07:18:26;4.45;;;1.67;;
78858;SDS011;68210;52.032;4.634;2023-08-17T07:20:26;5.40;;;1.80;;
78858;SDS011;68210;52.032;4.634;2023-08-17T07:22:26;7.18;;;1.95;;
78858;SDS011;68210;52.032;4.634;2023-08-17T07:24:27;4.53;;;1.95;;
78858;SDS011;68210;52.032;4.634;2023-08-17T07:26:27;2.97;;;1.13;;
78858;SDS011;68210;52.032;4.634;2023-08-17T07:28:28;5.20;;;1.65;;
78858;SDS011;68210;52.032;4.634;2023-08-17T07:30:28;4.55;;;1.50;;
78858;SDS011;68210;52.032;4.634;2023-08-17T07:32:29;6.88;;;1.55;;
78858;SDS011;68210;52.032;4.634;2023-08-17T07:34:29;5.00;;;1.73;;
78858;SDS011;68210;52.032;4.634;2023-08-17T07:36:32;7.28;;;1.70;;
78858;SDS011;68210;52.032;4.634;2023-08-17T07:38:33;3.70;;;1.50;;
78858;SDS011;68210;52.032;4.634;2023-08-17T07:40:33;6.28;;;1.45;;
78858;SDS011;68210;52.032;4.634;2023-08-17T07:42:34;7.07;;;1.70;;
78858;SDS011;68210;52.032;4.634;2023-08-17T07:44:34;6.05;;;1.73;;
78858;SDS011;68210;52.032;4.634;2023-08-17T07:46:35;3.70;;;1.30;;
78858;SDS011;68210;52.032;4.634;2023-08-17T07:48:35;6.13;;;1.48;;
78858;SDS011;68210;52.032;4.634;2023-08-17T07:50:35;3.10;;;1.50;;
78858;SDS011;68210;52.032;4.634;2023-08-17T07:52:36;4.70;;;1.60;;
78858;SDS011;68210;52.032;4.634;2023-08-17T07:54:36;3.28;;;1.17;;
78858;SDS011;68210;52.032;4.634;2023-08-17T07:56:36;4.03;;;1.88;;
78858;SDS011;68210;52.032;4.634;2023-08-17T07:58:37;7.80;;;1.75;;
78858;SDS011;68210;52.032;4.634;2023-08-17T08:00:37;3.53;;;1.35;;
78858;SDS011;68210;52.032;4.634;2023-08-17T08:02:38;3.63;;;1.55;;
78858;SDS011;68210;52.032;4.634;2023-08-17T08:04:38;4.97;;;1.50;;
78858;SDS011;68210;52.032;4.634;2023-08-17T08:06:39;3.92;;;1.60;;
78858;SDS011;68210;52.032;4.634;2023-08-17T08:08:39;7.45;;;1.50;;
78858;SDS011;68210;52.032;4.634;2023-08-17T08:10:40;6.60;;;1.27;;
78858;SDS011;68210;52.032;4.634;2023-08-17T08:12:41;5.25;;;1.63;;
78858;SDS011;68210;52.032;4.634;2023-08-17T08:14:41;5.65;;;1.63;;
78858;SDS011;68210;52.032;4.634;2023-08-17T08:16:41;4.32;;;1.48;;
78858;SDS011;68210;52.032;4.634;2023-08-17T08:18:42;4.57;;;1.77;;
78858;SDS011;68210;52.032;4.634;2023-08-17T08:20:42;3.55;;;1.40;;
78858;SDS011;68210;52.032;4.634;2023-08-17T08:22:43;4.05;;;1.40;;
78858;SDS011;68210;52.032;4.634;2023-08-17T08:24:43;8.43;;;1.80;;
78858;SDS011;68210;52.032;4.634;2023-08-17T08:26:43;5.47;;;1.25;;
78858;SDS011;68210;52.032;4.634;2023-08-17T08:28:44;4.10;;;1.52;;
78858;SDS011;68210;52.032;4.634;2023-08-17T08:30:45;6.25;;;1.50;;
78858;SDS011;68210;52.032;4.634;2023-08-17T08:32:45;5.93;;;1.35;;
78858;SDS011;68210;52.032;4.634;2023-08-17T08:34:45;4.43;;;1.58;;
78858;SDS011;68210;52.032;4.634;2023-08-17T08:36:46;4.63;;;1.65;;
78858;SDS011;68210;52.032;4.634;2023-08-17T08:38:47;4.43;;;1.65;;
78858;SDS011;68210;52.032;4.634;2023-08-17T08:40:47;4.65;;;1.60;;
78858;SDS011;68210;52.032;4.634;2023-08-17T08:42:48;5.88;;;1.85;;
78858;SDS011;68210;52.032;4.634;2023-08-17T08:44:49;5.05;;;1.45;;
78858;SDS011;68210;52.032;4.634;2023-08-17T08:46:50;4.50;;;1.65;;
78858;SDS011;68210;52.032;4.634;2023-08-17T08:48:53;7.00;;;2.08;;
78858;SDS011;68210;52.032;4.634;2023-08-17T08:50:55;8.18;;;1.50;;
78858;SDS011;68210;52.032;4.634;2023-08-17T08:55:02;5.93;;;1.85;;
78858;SDS011;68210;52.032;4.634;2023-08-17T08:57:08;8.57;;;1.77;;
78858;SDS011;68210;52.032;4.634;2023-08-17T08:59:13;3.03;;;1.60;;
78858;SDS011;68210;52.032;4.634;2023-08-17T09:01:14;5.32;;;1.73;;
78858;SDS011;68210;52.032;4.634;2023-08-17T09:03:16;4.30;;;1.85;;
78858;SDS011;68210;52.032;4.634;2023-08-17T09:05:18;3.72;;;1.55;;
78858;SDS011;68210;52.032;4.634;2023-08-17T09:07:19;4.82;;;1.42;;
78858;SDS011;68210;52.032;4.634;2023-08-17T09:09:22;6.30;;;1.35;;
78858;SDS011;68210;52.032;4.634;2023-08-17T09:11:22;5.85;;;1.60;;
78858;SDS011;68210;52.032;4.634;2023-08-17T09:13:23;7.93;;;1.77;;
78858;SDS011;68210;52.032;4.634;2023-08-17T09:15:23;3.38;;;1.60;;
78858;SDS011;68210;52.032;4.634;2023-08-17T09:17:24;7.20;;;1.70;;
78858;SDS011;68210;52.032;4.634;2023-08-17T09:19:26;5.70;;;1.98;;
78858;SDS011;68210;52.032;4.634;2023-08-17T09:21:31;5.05;;;1.50;;
78858;SDS011;68210;52.032;4.634;2023-08-17T09:23:32;3.70;;;1.88;;
78858;SDS011;68210;52.032;4.634;2023-08-17T09:25:33;5.43;;;1.60;;
78858;SDS011;68210;52.032;4.634;2023-08-17T09:27:35;7.07;;;2.38;;
78858;SDS011;68210;52.032;4.634;2023-08-17T09:29:37;6.28;;;2.00;;
78858;SDS011;68210;52.032;4.634;2023-08-17T09:31:38;4.70;;;1.92;;
78858;SDS011;68210;52.032;4.634;2023-08-17T09:33:39;6.18;;;1.98;;
78858;SDS011;68210;52.032;4.634;2023-08-17T09:35:41;12.55;;;2.00;;
78858;SDS011;68210;52.032;4.634;2023-08-17T09:37:42;4.90;;;1.75;;
78858;SDS011;68210;52.032;4.634;2023-08-17T09:39:42;5.15;;;1.80;;
78858;SDS011;68210;52.032;4.634;2023-08-17T09:41:42;3.35;;;1.50;;
78858;SDS011;68210;52.032;4.634;2023-08-17T09:43:44;4.80;;;1.67;;
78858;SDS011;68210;52.032;4.634;2023-08-17T09:45:46;3.88;;;1.65;;
78858;SDS011;68210;52.032;4.634;2023-08-17T09:47:49;6.68;;;1.90;;
78858;SDS011;68210;52.032;4.634;2023-08-17T09:49:51;7.20;;;1.83;;
78858;SDS011;68210;52.032;4.634;2023-08-17T09:51:52;7.13;;;2.10;;
78858;SDS011;68210;52.032;4.634;2023-08-17T09:53:53;5.70;;;1.83;;
78858;SDS011;68210;52.032;4.634;2023-08-17T09:55:53;3.67;;;1.80;;
78858;SDS011;68210;52.032;4.634;2023-08-17T09:57:57;5.25;;;1.88;;
78858;SDS011;68210;52.032;4.634;2023-08-17T09:59:57;5.80;;;2.38;;
78858;SDS011;68210;52.032;4.634;2023-08-17T10:01:58;6.88;;;2.42;;
78858;SDS011;68210;52.032;4.634;2023-08-17T10:03:59;5.82;;;2.00;;
78858;SDS011;68210;52.032;4.634;2023-08-17T10:06:04;4.15;;;1.73;;
78858;SDS011;68210;52.032;4.634;2023-08-17T10:08:12;5.32;;;1.83;;
78858;SDS011;68210;52.032;4.634;2023-08-17T10:10:19;5.13;;;2.05;;
78858;SDS011;68210;52.032;4.634;2023-08-17T10:12:23;5.82;;;2.13;;
78858;SDS011;68210;52.032;4.634;2023-08-17T10:14:30;4.88;;;2.00;;
78858;SDS011;68210;52.032;4.634;2023-08-17T10:16:37;6.53;;;1.73;;
78858;SDS011;68210;52.032;4.634;2023-08-17T10:18:50;3.35;;;1.90;;
78858;SDS011;68210;52.032;4.634;2023-08-17T10:20:58;5.93;;;2.28;;
78858;SDS011;68210;52.032;4.634;2023-08-17T10:23:10;6.90;;;2.70;;
78858;SDS011;68210;52.032;4.634;2023-08-17T10:25:15;6.22;;;2.25;;
78858;SDS011;68210;52.032;4.634;2023-08-17T10:27:16;4.43;;;2.22;;
78858;SDS011;68210;52.032;4.634;2023-08-17T10:29:16;7.93;;;2.05;;
78858;SDS011;68210;52.032;4.634;2023-08-17T10:31:18;6.65;;;2.35;;
78858;SDS011;68210;52.032;4.634;2023-08-17T10:33:19;5.10;;;2.15;;
78858;SDS011;68210;52.032;4.634;2023-08-17T10:35:20;4.03;;;1.98;;
78858;SDS011;68210;52.032;4.634;2023-08-17T10:37:21;5.20;;;1.90;;
78858;SDS011;68210;52.032;4.634;2023-08-17T10:39:27;4.75;;;2.10;;
78858;SDS011;68210;52.032;4.634;2023-08-17T10:41:29;3.97;;;1.80;;
78858;SDS011;68210;52.032;4.634;2023-08-17T10:43:32;5.68;;;2.22;;
78858;SDS011;68210;52.032;4.634;2023-08-17T10:45:34;6.32;;;2.00;;
78858;SDS011;68210;52.032;4.634;2023-08-17T10:47:36;4.90;;;2.10;;
78858;SDS011;68210;52.032;4.634;2023-08-17T10:49:38;5.65;;;2.28;;
78858;SDS011;68210;52.032;4.634;2023-08-17T10:51:42;5.57;;;2.30;;
78858;SDS011;68210;52.032;4.634;2023-08-17T10:54:02;3.97;;;2.03;;
78858;SDS011;68210;52.032;4.634;2023-08-17T10:56:03;3.22;;;2.00;;
78858;SDS011;68210;52.032;4.634;2023-08-17T10:58:07;9.00;;;2.17;;
78858;SDS011;68210;52.032;4.634;2023-08-17T11:00:14;5.45;;;2.38;;
78858;SDS011;68210;52.032;4.634;2023-08-17T11:02:32;5.40;;;1.83;;
78858;SDS011;68210;52.032;4.634;2023-08-17T11:04:32;7.70;;;2.00;;
78858;SDS011;68210;52.032;4.634;2023-08-17T11:06:33;4.57;;;2.13;;
78858;SDS011;68210;52.032;4.634;2023-08-17T11:08:38;7.82;;;2.25;;
78858;SDS011;68210;52.032;4.634;2023-08-17T11:10:40;4.50;;;1.80;;
78858;SDS011;68210;52.032;4.634;2023-08-17T11:12:43;4.47;;;2.25;;
78858;SDS011;68210;52.032;4.634;2023-08-17T11:14:44;4.53;;;1.90;;
78858;SDS011;68210;52.032;4.634;2023-08-17T11:16:46;4.35;;;1.85;;
78858;SDS011;68210;52.032;4.634;2023-08-17T11:18:47;5.18;;;2.70;;
78858;SDS011;68210;52.032;4.634;2023-08-17T11:20:48;5.38;;;2.05;;
78858;SDS011;68210;52.032;4.634;2023-08-17T11:22:50;4.75;;;1.88;;
78858;SDS011;68210;52.032;4.634;2023-08-17T11:24:50;4.32;;;2.40;;
78858;SDS011;68210;52.032;4.634;2023-08-17T11:26:51;5.68;;;1.98;;
78858;SDS011;68210;52.032;4.634;2023-08-17T11:28:51;5.85;;;2.22;;
78858;SDS011;68210;52.032;4.634;2023-08-17T11:31:02;9.35;;;2.00;;
78858;SDS011;68210;52.032;4.634;2023-08-17T11:33:04;5.70;;;2.35;;
78858;SDS011;68210;52.032;4.634;2023-08-17T11:35:05;3.65;;;1.92;;
78858;SDS011;68210;52.032;4.634;2023-08-17T11:37:06;3.92;;;1.75;;
78858;SDS011;68210;52.032;4.634;2023-08-17T11:39:06;5.65;;;1.80;;
78858;SDS011;68210;52.032;4.634;2023-08-17T11:41:08;4.80;;;2.53;;
78858;SDS011;68210;52.032;4.634;2023-08-17T11:43:09;6.10;;;2.75;;
78858;SDS011;68210;52.032;4.634;2023-08-17T11:45:09;6.82;;;2.35;;
78858;SDS011;68210;52.032;4.634;2023-08-17T11:47:10;8.07;;;2.40;;
78858;SDS011;68210;52.032;4.634;2023-08-17T11:49:12;7.53;;;2.42;;
78858;SDS011;68210;52.032;4.634;2023-08-17T11:51:12;6.50;;;2.13;;
78858;SDS011;68210;52.032;4.634;2023-08-17T11:53:13;4.25;;;1.95;;
78858;SDS011;68210;52.032;4.634;2023-08-17T11:55:15;6.35;;;2.47;;
78858;SDS011;68210;52.032;4.634;2023-08-17T11:57:18;7.15;;;2.17;;
78858;SDS011;68210;52.032;4.634;2023-08-17T11:59:18;4.15;;;2.05;;
78858;SDS011;68210;52.032;4.634;2023-08-17T12:01:19;4.85;;;2.35;;
78858;SDS011;68210;52.032;4.634;2023-08-17T12:03:20;3.25;;;2.20;;
78858;SDS011;68210;52.032;4.634;2023-08-17T12:05:24;6.50;;;2.30;;
78858;SDS011;68210;52.032;4.634;2023-08-17T12:07:27;4.95;;;2.63;;
78858;SDS011;68210;52.032;4.634;2023-08-17T12:09:28;4.45;;;1.88;;
78858;SDS011;68210;52.032;4.634;2023-08-17T12:11:28;6.13;;;1.98;;
78858;SDS011;68210;52.032;4.634;2023-08-17T12:13:32;3.95;;;2.20;;
78858;SDS011;68210;52.032;4.634;2023-08-17T12:15:34;5.55;;;2.15;;
78858;SDS011;68210;52.032;4.634;2023-08-17T12:17:35;7.32;;;2.80;;